Time;durP1;ratioP1;P1;durP2;ratioP2;P2;SDS_P1;SDS_P2;PMS_P1;PMS_P2;Temp;Humidity;BMP_temperature;BMP_pressure;BME280_temperature;BME280_humidity;BME280_pressure;Samples;Min_cycle;Max_cycle;Signal;HPM_P1;HPM_P2
2023/05/11 00:01:35;;;;;;;26.27;18.88;;;;;;;17.07;63.25;101358.63;5045184;27;123636;-65
2023/05/11 00:04:02;;;;;;;26.45;19.25;;;;;;;17.08;63.15;101354.13;5049208;27;108761;-65
2023/05/11 00:06:31;;;;;;;28.27;19.20;;;;;;;17.08;63.22;101348.75;5050229;27;110269;-65
2023/05/11 00:08:58;;;;;;;26.75;18.60;;;;;;;17.10;63.14;101352.19;5049047;27;124015;-65
2023/05/11 00:11:26;;;;;;;26.23;19.13;;;;;;;17.10;63.28;101346.84;5048504;27;124622;-65
2023/05/11 00:13:53;;;;;;;25.88;18.23;;;;;;;17.09;63.32;101345.16;5051613;27;109067;-65
2023/05/11 00:16:20;;;;;;;32.35;19.65;;;;;;;17.09;63.21;101345.16;5046331;27;109898;-65
2023/05/11 00:18:48;;;;;;;26.17;18.83;;;;;;;17.08;63.13;101343.41;5050166;27;124525;-65
2023/05/11 00:21:15;;;;;;;25.88;19.05;;;;;;;17.06;63.19;101339.97;5042889;27;124476;-65
2023/05/11 00:23:43;;;;;;;28.75;18.98;;;;;;;17.02;63.15;101341.13;5047692;27;110670;-65
2023/05/11 00:26:10;;;;;;;28.90;19.23;;;;;;;17.00;63.25;101340.38;5047058;27;109856;-65
2023/05/11 00:28:37;;;;;;;30.75;19.67;;;;;;;16.99;63.41;101338.66;5046192;27;125667;-64
2023/05/11 00:31:05;;;;;;;28.13;19.13;;;;;;;16.98;63.46;101336.94;5048924;27;123634;-65
2023/05/11 00:33:32;;;;;;;25.55;18.98;;;;;;;16.96;63.50;101338.88;5047561;27;108082;-65
2023/05/11 00:35:59;;;;;;;28.27;19.90;;;;;;;16.95;63.37;101342.47;5050022;27;110303;-65
2023/05/11 00:38:26;;;;;;;28.95;19.58;;;;;;;16.95;63.38;101337.13;5045302;27;124397;-64
2023/05/11 00:40:54;;;;;;;27.52;18.60;;;;;;;16.93;63.35;101340.78;5047550;27;123920;-64
2023/05/11 00:43:21;;;;;;;28.65;19.23;;;;;;;16.92;63.48;101333.69;5048462;27;108194;-64
2023/05/11 00:45:51;;;;;;;29.33;18.45;;;;;;;16.89;63.45;101333.88;5047450;27;110079;-65
2023/05/11 00:48:18;;;;;;;28.15;18.15;;;;;;;16.91;63.40;101329.31;5044218;27;124109;-66
2023/05/11 00:50:46;;;;;;;28.15;18.42;;;;;;;16.91;63.35;101332.00;5049713;27;123037;-66
2023/05/11 00:53:13;;;;;;;26.50;17.55;;;;;;;16.91;63.41;101332.00;5050982;27;107997;-65
2023/05/11 00:55:40;;;;;;;26.00;18.63;;;;;;;16.92;63.39;101339.03;5051181;27;110154;-65
2023/05/11 00:58:08;;;;;;;27.38;18.08;;;;;;;16.95;63.40;101342.47;5051438;27;123884;-65
2023/05/11 01:00:35;;;;;;;27.10;18.95;;;;;;;16.94;63.19;101336.28;5049089;27;123714;-65
2023/05/11 01:03:03;;;;;;;27.08;18.27;;;;;;;16.95;63.27;101342.47;5054208;27;109220;-65
2023/05/11 01:05:40;;;;;;;27.50;18.08;;;;;;;16.93;63.26;101340.78;5049544;27;110041;-65
2023/05/11 01:08:45;;;;;;;24.20;17.15;;;;;;;16.93;63.14;101340.78;5048615;27;124424;-65
2023/05/11 01:11:29;;;;;;;25.75;18.52;;;;;;;16.90;63.28;101334.75;5051411;27;123186;-65
2023/05/11 01:14:05;;;;;;;25.17;17.35;;;;;;;16.89;63.23;101341.91;5053286;27;110306;-65
2023/05/11 01:16:39;;;;;;;28.25;18.65;;;;;;;16.89;63.29;101344.59;5049813;27;110669;-65
2023/05/11 01:19:41;;;;;;;26.27;17.52;;;;;;;16.89;63.10;101355.28;5053710;27;126848;-65
2023/05/11 01:22:24;;;;;;;28.35;18.33;;;;;;;16.87;63.37;101345.66;5066263;27;123132;-65
2023/05/11 01:25:20;;;;;;;27.05;18.35;;;;;;;16.85;63.32;101352.91;5050415;27;108295;-65
2023/05/11 01:28:07;;;;;;;;;;;;;;;16.84;63.22;101354.75;5046673;27;109358;-66
2023/05/11 01:31:09;;;;;;;25.73;17.60;;;;;;;16.85;63.17;101347.56;5048051;27;125883;-66
2023/05/11 01:33:45;;;;;;;28.65;18.95;;;;;;;16.84;63.15;101357.41;5065368;27;123453;-65
2023/05/11 01:36:14;;;;;;;25.85;17.75;;;;;;;16.84;63.35;101352.06;5048961;27;108060;-65
2023/05/11 01:38:45;;;;;;;27.58;18.30;;;;;;;16.85;63.42;101353.75;5053251;27;109202;-65
2023/05/11 01:41:16;;;;;;;29.60;18.80;;;;;;;16.85;63.54;101353.75;5051872;27;124377;-65
2023/05/11 01:43:48;;;;;;;29.05;18.63;;;;;;;16.87;63.50;101354.53;5048154;27;123568;-65
2023/05/11 01:46:16;;;;;;;30.38;19.92;;;;;;;16.87;63.26;101357.19;5053788;27;108628;-66
2023/05/11 01:48:47;;;;;;;29.23;20.15;;;;;;;16.87;63.62;101357.19;5050145;27;110284;-65
2023/05/11 01:51:17;;;;;;;30.23;19.75;;;;;;;16.87;63.50;101362.56;5045984;27;124120;-66
2023/05/11 01:53:45;;;;;;;35.25;20.42;;;;;;;16.88;63.54;101358.94;5037088;27;123079;-65
2023/05/11 01:56:15;;;;;;;30.90;19.75;;;;;;;16.87;63.39;101362.56;5053184;27;108413;-65
2023/05/11 01:58:44;;;;;;;34.08;19.80;;;;;;;16.87;63.61;101362.56;5052005;27;109882;-66
2023/05/11 02:01:14;;;;;;;34.90;20.65;;;;;;;16.87;63.69;101361.69;5048107;27;123816;-65
2023/05/11 02:03:43;;;;;;;36.35;21.98;;;;;;;16.86;63.45;101366.19;5068287;27;122781;-65
2023/05/11 02:06:14;;;;;;;34.53;21.23;;;;;;;16.84;63.62;101362.75;5049703;27;110119;-65
2023/05/11 02:08:44;;;;;;;32.75;21.63;;;;;;;16.84;63.72;101372.59;5052796;27;109281;-65
2023/05/11 02:11:13;;;;;;;37.28;22.42;;;;;;;16.84;63.83;101373.47;5046489;27;124539;-66
2023/05/11 02:13:43;;;;;;;34.33;22.67;;;;;;;16.82;63.62;101370.03;5048703;27;123163;-65
2023/05/11 02:16:14;;;;;;;39.40;22.45;;;;;;;16.81;63.82;101360.25;5051959;27;108272;-65
2023/05/11 02:18:42;;;;;;;38.40;23.85;;;;;;;16.80;63.72;101361.22;5066520;27;109269;-65
2023/05/11 02:21:11;;;;;;;35.40;22.90;;;;;;;16.79;63.73;101361.31;5050179;27;124726;-65
2023/05/11 02:23:40;;;;;;;35.90;22.70;;;;;;;16.78;63.87;101368.44;5047923;27;123082;-65
2023/05/11 02:26:09;;;;;;;34.13;22.50;;;;;;;16.79;63.86;101364.84;5048131;27;109929;-66
2023/05/11 02:28:36;;;;;;;35.42;22.77;;;;;;;16.80;63.88;101361.22;5053552;27;112829;-66
2023/05/11 02:31:10;;;;;;;35.67;22.70;;;;;;;16.81;63.81;101359.38;5033996;27;123189;-65
2023/05/11 02:33:43;;;;;;;32.90;21.70;;;;;;;16.79;63.96;101351.47;5050558;27;123889;-65
2023/05/11 02:36:16;;;;;;;35.97;22.70;;;;;;;16.80;63.91;101355.88;5049179;27;108423;-65
2023/05/11 02:38:45;;;;;;;34.63;23.00;;;;;;;16.78;63.82;101346.19;5050543;27;109126;-65
2023/05/11 02:41:20;;;;;;;35.70;22.45;;;;;;;16.77;63.95;101350.69;5050918;27;123428;-65
2023/05/11 02:43:51;;;;;;;34.95;22.52;;;;;;;16.76;63.84;101348.97;5050950;27;124767;-65
2023/05/11 02:46:25;;;;;;;36.33;21.92;;;;;;;16.74;63.94;101349.09;5046329;27;108214;-65
2023/05/11 02:48:59;;;;;;;34.33;22.30;;;;;;;16.75;63.91;101352.59;5052247;27;109279;-65
2023/05/11 02:51:35;;;;;;;37.67;22.95;;;;;;;16.76;63.83;101348.97;5050803;27;123193;-65
2023/05/11 02:54:06;;;;;;;35.67;22.98;;;;;;;16.76;63.96;101348.97;5047583;27;123971;-65
2023/05/11 02:56:37;;;;;;;35.22;23.38;;;;;;;16.78;63.91;101348.88;5050722;27;109988;-65
2023/05/11 02:59:05;;;;;;;35.03;23.23;;;;;;;16.78;64.00;101347.03;5048700;27;110231;-65
2023/05/11 03:01:32;;;;;;;38.67;23.77;;;;;;;16.79;63.94;101359.47;5049549;27;123272;-65
2023/05/11 03:04:03;;;;;;;36.90;23.25;;;;;;;16.79;64.04;101358.63;5050605;27;121519;-65
2023/05/11 03:06:32;;;;;;;36.60;23.05;;;;;;;16.78;64.04;101363.09;5046217;27;109494;-65
2023/05/11 03:09:00;;;;;;;36.70;23.55;;;;;;;16.80;63.96;101363.88;5063074;27;108730;-65
2023/05/11 03:11:29;;;;;;;35.95;23.05;;;;;;;16.82;63.96;101359.34;5051526;27;123752;-65
2023/05/11 03:13:57;;;;;;;38.10;23.75;;;;;;;16.81;63.84;101357.56;5049714;27;122876;-65
2023/05/11 03:16:25;;;;;;;35.92;23.38;;;;;;;16.80;63.89;101361.22;5050669;27;108263;-65
2023/05/11 03:18:55;;;;;;;39.72;24.13;;;;;;;16.82;63.92;101358.41;5051534;27;109250;-64
2023/05/11 03:21:23;;;;;;;40.00;23.40;;;;;;;16.82;63.90;101362.00;5050486;27;123713;-66
2023/05/11 03:23:51;;;;;;;39.83;23.40;;;;;;;16.83;63.75;101371.72;5049036;27;124032;-65
2023/05/11 03:26:20;;;;;;;45.05;25.02;;;;;;;16.83;63.72;101370.88;5049408;27;108329;-66
2023/05/11 03:28:51;;;;;;;42.00;24.73;;;;;;;16.81;63.82;101373.63;5051491;27;108856;-66
2023/05/11 03:31:18;;;;;;;40.92;24.55;;;;;;;16.81;63.70;101362.91;5047943;27;124198;-65
2023/05/11 03:33:46;;;;;;;44.95;26.45;;;;;;;16.81;63.67;101362.91;5046078;27;124499;-66
2023/05/11 03:36:14;;;;;;;42.72;24.15;;;;;;;16.80;63.57;101361.22;5052140;27;108541;-65
2023/05/11 03:38:43;;;;;;;41.80;24.60;;;;;;;16.79;63.61;101359.47;5051636;27;109126;-65
2023/05/11 03:41:16;;;;;;;43.83;24.73;;;;;;;16.79;63.72;101364.84;5050402;27;123272;-65
2023/05/11 03:43:50;;;;;;;41.33;24.20;;;;;;;16.78;63.58;101363.09;5047813;27;126452;-65
2023/05/11 03:46:21;;;;;;;43.10;24.63;;;;;;;16.78;63.62;101360.41;5048939;27;109404;-66
2023/05/11 03:48:50;;;;;;;43.40;24.80;;;;;;;16.77;63.47;101356.03;5049401;27;110201;-66
2023/05/11 03:51:20;;;;;;;44.40;24.75;;;;;;;16.78;63.55;101362.25;5047132;27;123171;-66
2023/05/11 03:53:48;;;;;;;43.20;24.75;;;;;;;16.77;63.74;101356.03;5050035;27;124282;-66
2023/05/11 03:56:15;;;;;;;44.65;24.75;;;;;;;16.77;63.53;101356.03;5050727;27;108072;-66
2023/05/11 03:58:43;;;;;;;40.00;23.77;;;;;;;16.78;63.49;101349.72;5045704;27;109060;-66
2023/05/11 04:01:11;;;;;;;44.17;24.33;;;;;;;16.79;63.44;101359.47;5048459;27;123937;-66
2023/05/11 04:03:52;;;;;;;44.38;23.52;;;;;;;16.78;63.45;101357.75;5044691;27;123006;-66
2023/05/11 04:06:21;;;;;;;42.63;23.80;;;;;;;16.79;63.46;101359.47;5047844;27;109140;-66
2023/05/11 04:08:57;;;;;;;40.53;23.40;;;;;;;16.79;63.42;101363.97;5049595;27;112386;-65
2023/05/11 04:11:26;;;;;;;41.40;24.35;;;;;;;16.80;63.32;101361.22;5029761;27;123060;-66
2023/05/11 04:13:54;;;;;;;41.05;24.35;;;;;;;16.80;63.40;101361.22;5047570;27;123453;-66
2023/05/11 04:16:21;;;;;;;46.25;25.25;;;;;;;16.81;63.42;101362.91;5051410;27;107934;-66
2023/05/11 04:18:48;;;;;;;41.20;23.70;;;;;;;16.82;63.43;101363.75;5050149;27;109813;-66
2023/05/11 04:21:16;;;;;;;41.88;24.05;;;;;;;16.82;63.44;101363.75;5049646;27;124436;-66
2023/05/11 04:23:43;;;;;;;40.50;24.02;;;;;;;16.81;63.54;101373.63;5051018;27;123588;-65
2023/05/11 04:26:10;;;;;;;37.38;23.02;;;;;;;16.81;63.53;101368.25;5053743;27;108917;-66
2023/05/11 04:28:37;;;;;;;36.97;23.15;;;;;;;16.81;63.40;101370.94;5054019;27;109733;-66
2023/05/11 04:31:04;;;;;;;39.88;24.38;;;;;;;16.80;63.40;101377.25;5052631;27;123696;-66
2023/05/11 04:33:32;;;;;;;39.40;24.35;;;;;;;16.79;63.35;101374.69;5034896;27;123549;-66
2023/05/11 04:36:00;;;;;;;38.95;23.33;;;;;;;16.78;63.46;101376.47;5053324;27;110413;-65
2023/05/11 04:38:27;;;;;;;36.35;22.30;;;;;;;16.78;63.59;101379.16;5051635;27;110159;-66
2023/05/11 04:40:55;;;;;;;42.00;23.83;;;;;;;16.76;63.43;101370.34;5051317;27;122912;-64
2023/05/11 04:43:22;;;;;;;37.05;22.63;;;;;;;16.76;63.48;101375.72;5049879;27;122968;-66
2023/05/11 04:45:50;;;;;;;37.80;22.65;;;;;;;16.76;63.74;101365.00;5054345;27;108561;-67
2023/05/11 04:48:25;;;;;;;39.73;23.27;;;;;;;16.74;63.62;101366.94;5053925;27;109375;-65
2023/05/11 04:50:54;;;;;;;39.53;22.38;;;;;;;16.74;63.76;101372.28;5051599;27;123739;-64
2023/05/11 04:53:25;;;;;;;39.05;21.95;;;;;;;16.74;63.60;101366.94;5051231;27;123153;-66
2023/05/11 04:55:52;;;;;;;37.13;22.50;;;;;;;16.76;63.83;101370.34;5049988;27;109453;-65
2023/05/11 04:58:19;;;;;;;39.65;22.42;;;;;;;16.77;63.84;101377.44;5052606;27;108963;-65
2023/05/11 05:00:48;;;;;;;39.38;23.00;;;;;;;16.77;63.83;101372.09;5050729;27;122983;-65
2023/05/11 05:03:15;;;;;;;39.67;22.65;;;;;;;16.78;63.74;101373.78;5052890;27;123108;-65
2023/05/11 05:05:42;;;;;;;37.83;22.67;;;;;;;16.81;63.71;101373.63;5051575;27;109442;-66
2023/05/11 05:08:09;;;;;;;40.47;22.48;;;;;;;16.83;63.67;101382.44;5052421;27;109073;-66
2023/05/11 05:10:37;;;;;;;42.83;23.30;;;;;;;16.86;63.75;101382.25;5053391;27;123168;-66
2023/05/11 05:13:05;;;;;;;38.80;23.40;;;;;;;16.89;63.59;101379.38;5048329;27;125220;-66
2023/05/11 05:15:32;;;;;;;37.85;22.73;;;;;;;16.93;63.55;101388.94;5050388;27;109317;-66
2023/05/11 05:17:59;;;;;;;38.03;23.13;;;;;;;16.98;63.75;101390.47;5052439;27;109040;-65
2023/05/11 05:20:27;;;;;;;36.90;22.38;;;;;;;17.01;63.76;101390.25;5050526;27;124020;-66
2023/05/11 05:22:55;;;;;;;38.70;23.55;;;;;;;17.05;63.75;101398.00;5035654;27;123968;-66
2023/05/11 05:25:22;;;;;;;40.17;22.83;;;;;;;17.09;63.69;101398.66;5049676;27;109487;-66
2023/05/11 05:27:50;;;;;;;44.30;23.83;;;;;;;17.14;63.60;101396.56;5051945;27;109545;-66
2023/05/11 05:30:18;;;;;;;34.88;22.98;;;;;;;17.19;63.62;101398.94;5050651;27;123354;-65
2023/05/11 05:32:47;;;;;;;36.17;22.50;;;;;;;17.20;63.54;101398.00;5052307;27;123442;-65
2023/05/11 05:35:14;;;;;;;38.83;23.70;;;;;;;17.24;63.77;101403.03;5052343;27;109974;-65
2023/05/11 05:37:42;;;;;;;35.72;22.27;;;;;;;17.29;63.74;101400.94;5053120;27;108824;-65
2023/05/11 05:40:10;;;;;;;36.63;20.83;;;;;;;17.35;63.60;101404.16;5050735;27;124362;-65
2023/05/11 05:42:43;;;;;;;35.78;21.63;;;;;;;17.38;63.47;101409.31;5037015;27;126504;-65
2023/05/11 05:45:14;;;;;;;32.47;21.05;;;;;;;17.40;63.30;101418.09;5052459;27;108681;-65
2023/05/11 05:47:42;;;;;;;36.78;20.45;;;;;;;17.42;63.21;101416.19;5053787;27;109696;-65
2023/05/11 05:50:10;;;;;;;36.13;21.52;;;;;;;17.45;63.29;101418.69;5049710;27;123322;-65
2023/05/11 05:52:38;;;;;;;35.83;21.52;;;;;;;17.49;63.16;101423.72;5052705;27;122935;-65
2023/05/11 05:55:05;;;;;;;37.90;23.02;;;;;;;17.54;63.23;101423.44;5050840;27;108374;-65
2023/05/11 05:57:33;;;;;;;34.95;21.55;;;;;;;17.62;63.30;101421.09;5051869;27;109948;-66
2023/05/11 06:00:03;;;;;;;36.97;21.85;;;;;;;17.68;62.99;101428.75;5047161;27;123553;-66
2023/05/11 06:02:38;;;;;;;39.92;22.38;;;;;;;17.74;62.99;101421.25;5051122;27;124828;-65
2023/05/11 06:05:09;;;;;;;37.53;23.25;;;;;;;17.78;62.99;101422.78;5049515;27;108451;-65
2023/05/11 06:07:36;;;;;;;41.97;24.38;;;;;;;17.80;62.56;101427.09;5051629;27;109225;-65
2023/05/11 06:10:05;;;;;;;37.92;24.38;;;;;;;17.85;62.58;101429.47;5051196;27;123354;-65
2023/05/11 06:12:32;;;;;;;45.20;24.15;;;;;;;17.86;62.57;101426.72;5049141;27;124321;-65
2023/05/11 06:15:01;;;;;;;37.65;24.27;;;;;;;17.88;62.55;101429.28;5048827;27;108650;-65
2023/05/11 06:17:31;;;;;;;40.10;24.88;;;;;;;17.92;62.53;101433.47;5034932;27;109112;-65
2023/05/11 06:19:59;;;;;;;42.72;25.30;;;;;;;17.95;62.34;101435.97;5048444;27;123793;-65
2023/05/11 06:22:29;;;;;;;44.83;25.92;;;;;;;17.93;62.22;101432.50;5053279;27;123124;-65
2023/05/11 06:24:56;;;;;;;44.97;26.08;;;;;;;17.95;62.01;101441.31;5051001;27;109541;-65
2023/05/11 06:27:26;;;;;;;42.85;24.58;;;;;;;17.92;62.04;101441.53;5050407;27;109378;-65
2023/05/11 06:29:56;;;;;;;38.30;24.45;;;;;;;17.88;61.94;101440.88;5043420;27;123416;-65
2023/05/11 06:32:26;;;;;;;44.97;24.15;;;;;;;17.87;61.91;101443.63;5049322;27;123201;-65
2023/05/11 06:34:54;;;;;;;44.38;24.63;;;;;;;17.88;61.86;101440.88;5049946;27;108294;-64
2023/05/11 06:37:23;;;;;;;39.53;23.73;;;;;;;17.90;61.71;101443.44;5050408;27;109222;-64
2023/05/11 06:39:50;;;;;;;42.47;24.02;;;;;;;17.92;62.01;101440.66;5049481;27;124666;-65
2023/05/11 06:42:17;;;;;;;40.25;25.52;;;;;;;17.97;61.94;101444.75;5049599;27;123286;-64
2023/05/11 06:44:45;;;;;;;44.33;25.80;;;;;;;18.02;61.86;101450.66;5051128;27;108598;-65
2023/05/11 06:47:12;;;;;;;42.60;25.25;;;;;;;18.06;61.85;101446.84;5050497;27;109277;-65
2023/05/11 06:49:45;;;;;;;42.75;26.08;;;;;;;18.06;61.89;101438.78;5047572;27;124829;-64
2023/05/11 06:52:12;;;;;;;44.05;26.48;;;;;;;18.12;61.81;101447.34;5035934;27;123900;-65
2023/05/11 06:54:39;;;;;;;72.63;26.58;;;;;;;18.16;61.74;101443.50;5041872;27;109280;-65
2023/05/11 06:57:09;;;;;;;43.25;23.77;;;;;;;18.21;61.73;101447.59;5048458;27;109805;-65
2023/05/11 06:59:38;;;;;;;41.60;22.95;;;;;;;18.25;61.67;101449.13;5051037;27;124086;-65
2023/05/11 07:02:05;;;;;;;38.05;22.38;;;;;;;18.30;61.50;101448.81;5047822;27;124560;-65
2023/05/11 07:04:32;;;;;;;42.22;23.33;;;;;;;18.31;61.23;101447.84;5050591;27;109964;-66
2023/05/11 07:06:59;;;;;;;44.17;23.92;;;;;;;18.34;61.26;101453.00;5048069;27;110081;-64
2023/05/11 07:09:27;;;;;;;41.38;24.45;;;;;;;18.38;61.10;101457.16;5037417;27;124025;-65
2023/05/11 07:11:54;;;;;;;47.50;26.42;;;;;;;18.38;60.99;101454.50;5032625;27;123882;-65
2023/05/11 07:14:22;;;;;;;43.08;26.33;;;;;;;18.39;60.87;101456.22;5049929;27;109550;-65
2023/05/11 07:16:51;;;;;;;48.25;27.77;;;;;;;18.40;60.76;101463.31;5052358;27;109125;-65
2023/05/11 07:19:19;;;;;;;50.15;27.60;;;;;;;18.42;60.74;101461.41;5034715;27;122976;-65
2023/05/11 07:21:46;;;;;;;47.83;28.05;;;;;;;18.42;60.83;101450.66;5040249;27;122976;-65
2023/05/11 07:24:13;;;;;;;49.50;28.65;;;;;;;18.44;60.79;101458.56;5051406;27;109608;-65
2023/05/11 07:26:40;;;;;;;51.80;28.52;;;;;;;18.46;60.69;101452.16;5038937;27;109974;-65
2023/05/11 07:29:07;;;;;;;44.72;27.65;;;;;;;18.48;60.64;101455.59;5046261;27;124170;-65
2023/05/11 07:31:35;;;;;;;47.50;28.30;;;;;;;18.51;60.83;101461.72;5043923;27;124133;-67
2023/05/11 07:34:03;;;;;;;47.28;28.42;;;;;;;18.54;60.77;101458.84;5045854;27;108312;-67
2023/05/11 07:36:30;;;;;;;49.88;27.83;;;;;;;18.60;60.73;101463.75;5045636;27;109161;-67
2023/05/11 07:39:00;;;;;;;45.60;27.45;;;;;;;18.65;60.64;101467.00;5052844;27;124027;-67
2023/05/11 07:41:27;;;;;;;46.97;28.67;;;;;;;18.68;60.29;101461.41;5049758;27;123872;-67
2023/05/11 07:43:54;;;;;;;46.50;27.40;;;;;;;18.71;60.46;101471.94;5038893;27;109683;-65
2023/05/11 07:46:22;;;;;;;167.40;38.03;;;;;;;18.75;60.49;101457.31;5050064;27;110726;-65
2023/05/11 07:48:49;;;;;;;56.47;28.67;;;;;;;18.81;60.15;101458.75;5049777;27;124025;-65
2023/05/11 07:51:30;;;;;;;50.13;28.88;;;;;;;18.82;59.90;101455.97;5049726;27;124383;-64
2023/05/11 07:53:57;;;;;;;44.13;28.35;;;;;;;18.83;59.74;101460.34;5032712;27;110645;-65
2023/05/11 07:56:25;;;;;;;48.88;29.17;;;;;;;18.84;60.06;101456.72;5042386;27;110165;-65
2023/05/11 07:58:52;;;;;;;51.20;29.67;;;;;;;18.88;59.91;101456.53;5032115;27;123986;-65
2023/05/11 08:01:19;;;;;;;53.45;28.67;;;;;;;18.91;59.80;101456.28;5045397;27;123935;-65
2023/05/11 08:03:47;;;;;;;48.50;28.55;;;;;;;18.94;59.81;101461.44;5049669;27;109697;-65
2023/05/11 08:06:14;;;;;;;51.90;28.85;;;;;;;18.97;59.89;101455.88;5049672;27;109880;-65
2023/05/11 08:08:41;;;;;;;49.08;30.33;;;;;;;19.01;59.79;101458.22;5040048;27;124137;-65
2023/05/11 08:11:09;;;;;;;51.53;30.63;;;;;;;19.05;59.65;101459.72;5053991;27;124064;-65
2023/05/11 08:13:36;;;;;;;52.90;31.50;;;;;;;19.10;59.66;101467.47;5054998;27;109322;-66
2023/05/11 08:16:03;;;;;;;50.45;30.33;;;;;;;19.15;59.58;101465.28;5037540;27;110136;-65
2023/05/11 08:18:31;;;;;;;47.47;30.38;;;;;;;19.20;59.61;101473.88;5052291;27;124263;-65
2023/05/11 08:20:58;;;;;;;49.15;31.88;;;;;;;19.26;59.46;101468.06;5051865;27;123393;-66
2023/05/11 08:23:26;;;;;;;54.13;32.67;;;;;;;19.32;59.33;101471.28;5034821;27;108077;-64
2023/05/11 08:25:54;;;;;;;51.70;31.58;;;;;;;19.37;59.11;101471.81;5034061;27;110127;-65
2023/05/11 08:28:21;;;;;;;54.72;33.15;;;;;;;19.40;59.13;101474.25;5034929;27;123861;-65
2023/05/11 08:30:56;;;;;;;52.70;32.00;;;;;;;19.43;58.88;101469.53;5035389;27;124501;-65
2023/05/11 08:33:24;;;;;;;;;;;;;;;19.45;59.20;101472.09;5048650;27;109139;-65
2023/05/11 08:36:05;;;;;;;53.47;32.13;;;;;;;19.50;58.97;101469.94;5047305;27;109360;-65
2023/05/11 08:38:33;;;;;;;55.08;31.90;;;;;;;19.53;58.73;101469.72;5037932;27;124740;-65
2023/05/11 08:41:01;;;;;;;52.08;32.65;;;;;;;19.56;58.67;101469.50;5043956;27;124056;-66
2023/05/11 08:43:31;;;;;;;54.45;33.17;;;;;;;19.56;58.52;101458.75;5037734;27;110356;-65
2023/05/11 08:46:02;;;;;;;55.30;33.05;;;;;;;19.55;58.57;101457.03;5044835;27;109931;-65
2023/05/11 08:48:31;;;;;;;52.97;33.13;;;;;;;19.60;58.63;101464.75;5034730;27;124599;-65
2023/05/11 08:50:58;;;;;;;57.40;32.97;;;;;;;19.64;58.53;101461.72;5047718;27;123029;-65
2023/05/11 08:53:25;;;;;;;57.45;33.03;;;;;;;19.72;58.85;101462.97;5054828;27;109745;-65
2023/05/11 08:55:57;;;;;;;49.72;31.33;;;;;;;19.80;58.61;101460.66;5046681;27;111027;-65
2023/05/11 08:58:26;;;;;;;55.42;32.22;;;;;;;19.88;58.39;101452.84;5033723;27;124090;-65
2023/05/11 09:00:54;;;;;;;51.05;32.20;;;;;;;19.99;58.03;101458.28;5040947;27;124355;-67
2023/05/11 09:03:22;;;;;;;51.70;32.00;;;;;;;20.06;57.88;101465.88;5040694;27;109237;-66
2023/05/11 09:05:50;;;;;;;48.25;30.38;;;;;;;20.13;57.65;101456.38;5044454;27;109890;-65
2023/05/11 09:08:19;;;;;;;48.83;30.65;;;;;;;20.17;57.45;101463.25;5046142;27;123972;-65
2023/05/11 09:10:48;;;;;;;44.85;28.17;;;;;;;20.23;57.21;101452.03;5047103;27;123586;-65
2023/05/11 09:13:16;;;;;;;45.90;29.02;;;;;;;20.32;57.03;101462.06;5042595;27;109504;-66
2023/05/11 09:15:43;;;;;;;46.67;29.35;;;;;;;20.35;56.92;101461.00;5037273;27;110227;-65
2023/05/11 09:18:12;;;;;;;44.80;29.15;;;;;;;20.38;56.60;101464.31;5040575;27;123996;-65
2023/05/11 09:20:42;;;;;;;47.42;29.33;;;;;;;20.42;56.47;101463.09;5053886;27;123767;-65
2023/05/11 09:23:10;;;;;;;47.63;28.77;;;;;;;20.49;56.16;101462.63;5054690;27;108877;-65
2023/05/11 09:25:38;;;;;;;46.78;29.70;;;;;;;20.55;56.36;101462.13;5038075;27;109535;-66
2023/05/11 09:28:05;;;;;;;46.70;28.27;;;;;;;20.63;56.20;101465.13;5041627;27;124503;-67
2023/05/11 09:30:33;;;;;;;41.67;27.70;;;;;;;20.71;56.34;101468.06;5037118;27;124209;-67
2023/05/11 09:33:01;;;;;;;48.50;29.17;;;;;;;20.79;56.02;101468.34;5053738;27;110420;-67
2023/05/11 09:35:33;;;;;;;41.63;26.83;;;;;;;20.84;55.55;101456.38;5052790;27;109818;-65
2023/05/11 09:38:11;;;;;;;40.80;26.00;;;;;;;20.87;55.38;101450.72;5036987;27;123386;-65
2023/05/11 09:40:41;;;;;;;47.03;28.20;;;;;;;20.88;55.20;101453.28;5040263;27;123820;-65
2023/05/11 09:43:23;;;;;;;46.28;27.20;;;;;;;20.88;55.04;101457.81;5054194;27;109138;-66
2023/05/11 09:45:54;;;;;;;46.13;28.35;;;;;;;20.86;55.12;101459.78;5052735;27;110185;-65
2023/05/11 09:48:30;;;;;;;49.03;30.55;;;;;;;20.86;55.03;101459.78;5051347;27;123810;-65
2023/05/11 09:51:03;;;;;;;65.13;31.90;;;;;;;20.84;54.79;101461.75;5055351;27;124618;-65
2023/05/11 09:53:37;;;;;;;47.70;29.88;;;;;;;20.80;54.78;101471.91;5048225;27;109169;-67
2023/05/11 09:56:04;;;;;;;56.25;31.23;;;;;;;20.76;55.06;101465.88;5054708;27;109861;-67
2023/05/11 09:58:46;;;;;;;51.80;30.77;;;;;;;20.71;54.77;101462.69;5040446;27;124563;-67
2023/05/11 10:01:14;;;;;;;57.85;31.90;;;;;;;20.64;54.56;101466.84;5043581;27;123634;-67
2023/05/11 10:03:52;;;;;;;54.42;32.35;;;;;;;20.49;54.54;101473.38;5049360;27;109216;-67
2023/05/11 10:06:51;;;;;;;51.17;30.88;;;;;;;20.35;54.89;101461.84;5047566;27;110411;-65
2023/05/11 10:09:23;;;;;;;52.35;30.75;;;;;;;20.28;54.80;101475.88;5036029;27;122762;-65
2023/05/11 10:11:52;;;;;;;46.25;29.63;;;;;;;20.20;54.84;101473.78;5042089;27;124149;-65
2023/05/11 10:14:21;;;;;;;51.35;29.70;;;;;;;20.16;54.98;101472.28;5037315;27;109516;-65
2023/05/11 10:16:49;;;;;;;52.33;31.67;;;;;;;20.10;54.94;101467.34;5032699;27;109752;-67
2023/05/11 10:19:17;;;;;;;54.00;32.65;;;;;;;20.04;54.99;101468.69;5032122;27;124204;-67
2023/05/11 10:21:45;;;;;;;52.13;32.17;;;;;;;19.98;55.15;101470.00;5039758;27;124126;-67
2023/05/11 10:24:13;;;;;;;52.35;31.60;;;;;;;19.89;55.25;101470.72;5052265;27;110774;-67
2023/05/11 10:26:41;;;;;;;57.63;33.22;;;;;;;19.83;55.24;101476.53;5049668;27;110519;-65
2023/05/11 10:29:09;;;;;;;51.38;31.23;;;;;;;19.78;55.59;101473.34;5051640;27;124152;-65
2023/05/11 10:31:37;;;;;;;55.33;31.55;;;;;;;19.73;55.65;101480.88;5052539;27;122812;-65
2023/05/11 10:34:04;;;;;;;50.30;29.98;;;;;;;19.70;55.68;101476.53;5047321;27;108900;-65
2023/05/11 10:36:32;;;;;;;51.13;30.02;;;;;;;19.62;55.81;101479.78;5051633;27;110453;-65
2023/05/11 10:39:00;;;;;;;52.70;31.30;;;;;;;19.55;55.94;101483.91;5053020;27;123544;-65
2023/05/11 10:42:00;;;;;;;51.30;31.40;;;;;;;19.48;56.03;101485.31;5048650;27;124641;-65
2023/05/11 10:44:37;;;;;;;51.95;29.65;;;;;;;19.41;56.29;101481.34;5043964;27;109242;-64
2023/05/11 10:47:28;;;;;;;52.42;31.17;;;;;;;19.34;56.36;101485.44;5037049;27;109896;-64
2023/05/11 10:50:33;;;;;;;47.75;28.08;;;;;;;19.28;56.33;101485.91;5033877;27;124449;-64
2023/05/11 10:53:07;;;;;;;47.63;28.75;;;;;;;19.18;56.63;101481.19;5043293;27;123468;-64
2023/05/11 10:55:57;;;;;;;48.05;28.48;;;;;;;19.12;56.79;101487.00;5046587;27;109550;-64
2023/05/11 10:58:44;;;;;;;49.35;27.55;;;;;;;19.06;57.00;101476.66;5050595;27;110816;-64
2023/05/11 11:01:39;;;;;;;48.35;29.00;;;;;;;19.03;57.02;101479.59;5042867;27;124881;-64
2023/05/11 11:04:09;;;;;;;49.08;28.30;;;;;;;18.98;57.16;101477.22;5035482;27;124644;-64
2023/05/11 11:06:42;;;;;;;50.17;28.13;;;;;;;18.96;57.44;101480.97;5038913;27;109645;-64
2023/05/11 11:09:14;;;;;;;51.08;28.30;;;;;;;18.92;57.59;101479.47;5050919;27;110581;-64
2023/05/11 11:11:45;;;;;;;48.83;29.02;;;;;;;18.91;57.68;101484.00;5042562;27;123999;-65
2023/05/11 11:14:13;;;;;;;49.35;28.42;;;;;;;18.90;57.94;101481.41;5032934;27;124284;-64
2023/05/11 11:17:19;;;;;;;52.80;29.92;;;;;;;18.90;58.07;101489.47;5041254;27;110334;-65